createdAt,value
2022-12-26T00:00:58.806Z,1.88
2022-12-26T00:03:26.819Z,2.08
2022-12-26T00:05:55.997Z,3.28
2022-12-26T00:08:23.823Z,2.33
2022-12-26T00:10:51.561Z,5.38
2022-12-26T00:13:38.570Z,1.48
2022-12-26T00:16:08.545Z,2.70
2022-12-26T00:18:36.661Z,1.60
2022-12-26T00:21:06.083Z,2.80
2022-12-26T00:23:34.574Z,2.00
2022-12-26T00:26:04.151Z,2.42
2022-12-26T00:28:31.984Z,2.80
2022-12-26T00:31:00.081Z,4.25
2022-12-26T00:33:28.253Z,3.28
2022-12-26T00:36:01.332Z,3.78
2022-12-26T00:38:30.883Z,5.75
2022-12-26T00:40:58.847Z,4.38
2022-12-26T00:43:26.664Z,3.53
2022-12-26T00:45:54.625Z,5.05
2022-12-26T00:48:22.456Z,5.32
2022-12-26T00:50:50.187Z,3.55
2022-12-26T00:53:18.111Z,3.95
2022-12-26T00:55:47.186Z,5.22
2022-12-26T00:58:15.005Z,4.18
2022-12-26T01:00:42.772Z,2.60
2022-12-26T01:03:11.979Z,4.40
2022-12-26T01:05:42.655Z,4.70
2022-12-26T01:08:21.527Z,3.03
2022-12-26T01:10:53.406Z,4.35
2022-12-26T01:13:21.159Z,3.92
2022-12-26T01:15:50.671Z,4.07
2022-12-26T01:18:19.585Z,3.17
2022-12-26T01:20:48.146Z,2.20
2022-12-26T01:23:16.727Z,6.75
2022-12-26T01:26:15.328Z,4.78
2022-12-26T01:28:34.290Z,4.45
2022-12-26T01:31:03.186Z,4.32
2022-12-26T01:33:31.211Z,6.82
2022-12-26T01:35:59.641Z,4.88
2022-12-26T01:38:27.403Z,7.32
2022-12-26T01:41:15.481Z,3.78
2022-12-26T01:43:55.007Z,5.30
2022-12-26T01:46:26.996Z,3.17
2022-12-26T01:48:57.144Z,3.60
2022-12-26T01:51:27.747Z,3.83
2022-12-26T01:54:37.496Z,4.40
2022-12-26T01:56:47.859Z,5.50
2022-12-26T01:59:21.241Z,3.80
2022-12-26T02:01:51.946Z,4.78
2022-12-26T02:04:43.275Z,5.72
2022-12-26T02:07:11.491Z,6.30
2022-12-26T02:09:39.746Z,4.35
2022-12-26T02:12:34.275Z,5.57
2022-12-26T02:15:03.538Z,5.53
2022-12-26T02:17:31.338Z,4.60
2022-12-26T02:20:10.097Z,6.63
2022-12-26T02:23:31.442Z,4.65
2022-12-26T02:26:31.167Z,5.82
2022-12-26T02:29:40.048Z,4.97
2022-12-26T02:32:16.969Z,3.88
2022-12-26T02:34:54.468Z,7.65
2022-12-26T02:37:33.007Z,3.80
2022-12-26T02:40:14.750Z,3.90
2022-12-26T02:42:54.177Z,4.65
2022-12-26T02:45:46.594Z,5.60
2022-12-26T02:48:27.685Z,2.55
2022-12-26T02:51:25.673Z,5.82
2022-12-26T02:54:21.278Z,5.43
2022-12-26T02:57:12.374Z,2.50
2022-12-26T03:00:07.383Z,4.03
2022-12-26T03:05:47.334Z,2.85
2022-12-26T03:08:38.990Z,4.43
2022-12-26T03:11:24.790Z,5.60
2022-12-26T03:13:54.966Z,3.20
2022-12-26T03:16:42.373Z,4.55
2022-12-26T03:19:13.025Z,3.92
2022-12-26T03:21:46.154Z,2.35
2022-12-26T03:24:16.915Z,3.47
2022-12-26T03:26:50.508Z,1.10
2022-12-26T03:29:38.814Z,5.57
2022-12-26T03:32:08.210Z,2.90
2022-12-26T03:34:41.091Z,3.97
2022-12-26T03:37:48.516Z,3.30
2022-12-26T03:40:55.414Z,4.50
2022-12-26T03:43:55.003Z,4.60
2022-12-26T03:46:47.929Z,2.28
2022-12-26T03:49:39.703Z,5.05
2022-12-26T03:52:32.422Z,6.18
2022-12-26T03:55:24.676Z,3.75
2022-12-26T03:58:15.937Z,5.13
2022-12-26T04:01:03.857Z,2.83
2022-12-26T04:03:51.837Z,3.17
2022-12-26T04:06:41.552Z,4.57
2022-12-26T04:09:31.729Z,3.15
2022-12-26T04:12:19.180Z,3.40
2022-12-26T04:15:08.934Z,2.80
2022-12-26T04:18:01.454Z,4.47
2022-12-26T04:20:40.881Z,2.25
2022-12-26T04:23:30.549Z,2.55
2022-12-26T04:26:20.890Z,1.67
2022-12-26T04:29:08.223Z,5.63
2022-12-26T04:32:00.542Z,3.88
2022-12-26T04:34:51.068Z,3.33
2022-12-26T04:37:39.906Z,1.70
2022-12-26T04:40:32.248Z,2.45
2022-12-26T04:43:50.502Z,1.75
2022-12-26T04:46:08.413Z,2.92
2022-12-26T04:49:02.192Z,0.90
2022-12-26T04:51:30.272Z,2.40
2022-12-26T04:53:58.012Z,7.60
2022-12-26T04:56:25.926Z,2.55
2022-12-26T04:58:53.638Z,2.45
2022-12-26T05:01:40.477Z,3.15
2022-12-26T05:04:31.269Z,3.03
2022-12-26T05:07:17.769Z,1.73
2022-12-26T05:09:46.203Z,3.15
2022-12-26T05:12:13.909Z,2.22
2022-12-26T05:14:41.603Z,1.48
2022-12-26T05:17:30.953Z,5.20
2022-12-26T05:20:16.401Z,2.35
2022-12-26T05:23:04.063Z,2.22
2022-12-26T05:25:52.695Z,3.40
2022-12-26T05:28:38.360Z,2.97
2022-12-26T05:31:06.601Z,2.40
2022-12-26T05:33:53.373Z,2.95
2022-12-26T05:36:23.872Z,7.80
2022-12-26T05:38:51.615Z,4.75
2022-12-26T05:41:20.498Z,4.60
2022-12-26T05:43:48.312Z,2.75
2022-12-26T05:46:16.176Z,4.93
2022-12-26T05:48:45.501Z,2.78
2022-12-26T05:51:13.382Z,4.20
2022-12-26T05:53:41.075Z,10.35
2022-12-26T05:56:12.889Z,4.18
2022-12-26T05:58:41.194Z,3.22
2022-12-26T06:01:11.890Z,3.60
2022-12-26T06:03:41.438Z,3.47
2022-12-26T06:06:11.470Z,4.57
2022-12-26T06:08:39.519Z,2.80
2022-12-26T06:11:08.501Z,4.53
2022-12-26T06:13:38.075Z,4.95
2022-12-26T06:16:07.486Z,11.38
2022-12-26T06:18:35.726Z,2.65
2022-12-26T06:21:05.362Z,3.05
2022-12-26T06:23:34.465Z,4.22
2022-12-26T06:26:02.282Z,7.10
2022-12-26T06:28:29.985Z,3.67
2022-12-26T06:31:03.851Z,2.47
2022-12-26T06:33:31.794Z,3.92
2022-12-26T06:36:07.663Z,1.15
2022-12-26T06:38:37.021Z,2.35
2022-12-26T06:41:06.351Z,2.95
2022-12-26T06:43:34.179Z,0.65
2022-12-26T06:46:03.709Z,0.98
2022-12-26T06:48:33.261Z,0.90
2022-12-26T06:51:05.030Z,2.95
2022-12-26T06:53:34.462Z,1.55
2022-12-26T06:56:08.887Z,1.38
2022-12-26T06:58:37.296Z,1.50
2022-12-26T07:01:06.075Z,0.63
2022-12-26T07:03:33.961Z,0.80
2022-12-26T07:06:04.262Z,1.52
2022-12-26T07:08:32.045Z,1.10
2022-12-26T07:10:59.789Z,0.77
2022-12-26T07:13:29.012Z,7.18
2022-12-26T07:16:00.379Z,1.45
2022-12-26T07:18:28.198Z,1.48
2022-12-26T07:20:55.932Z,1.27
2022-12-26T07:23:23.779Z,1.15
2022-12-26T07:25:51.503Z,0.60
2022-12-26T07:28:19.260Z,0.43
2022-12-26T07:30:49.528Z,2.25
2022-12-26T07:33:18.182Z,3.50
2022-12-26T07:35:46.041Z,0.98
2022-12-26T07:38:14.556Z,1.20
2022-12-26T07:40:42.346Z,1.92
2022-12-26T07:43:10.044Z,0.85
2022-12-26T07:45:43.371Z,1.27
2022-12-26T07:48:14.730Z,1.00
2022-12-26T07:50:45.396Z,0.68
2022-12-26T07:53:13.446Z,0.95
2022-12-26T07:55:41.273Z,0.80
2022-12-26T07:58:09.065Z,0.88
2022-12-26T08:00:36.780Z,0.52
2022-12-26T08:03:07.909Z,1.60
2022-12-26T08:05:37.577Z,2.42
2022-12-26T08:08:05.778Z,1.65
2022-12-26T08:10:33.578Z,0.85
2022-12-26T08:13:01.341Z,1.65
2022-12-26T08:15:29.108Z,2.35
2022-12-26T08:17:56.888Z,3.03
2022-12-26T08:20:24.746Z,5.97
2022-12-26T08:22:53.761Z,3.90
2022-12-26T08:25:22.730Z,7.82
2022-12-26T08:27:50.484Z,6.82
2022-12-26T08:30:18.360Z,7.78
2022-12-26T08:32:47.021Z,4.82
2022-12-26T08:35:14.859Z,5.65
2022-12-26T08:37:42.600Z,9.30
2022-12-26T08:40:12.913Z,6.28
2022-12-26T08:43:02.944Z,5.05
2022-12-26T08:45:28.762Z,3.28
2022-12-26T08:47:56.579Z,8.30
2022-12-26T08:50:24.493Z,4.22
2022-12-26T08:52:52.379Z,19.45
2022-12-26T08:55:21.504Z,15.00
2022-12-26T08:57:49.364Z,6.72
2022-12-26T09:00:17.918Z,6.00
2022-12-26T09:02:45.820Z,6.15
2022-12-26T09:05:13.660Z,4.63
2022-12-26T09:07:41.393Z,3.53
2022-12-26T09:10:11.385Z,4.97
2022-12-26T09:12:40.998Z,3.88
2022-12-26T09:15:09.551Z,3.40
2022-12-26T09:17:37.284Z,4.45
2022-12-26T09:20:05.835Z,3.00
2022-12-26T09:22:51.606Z,3.47
2022-12-26T09:25:19.979Z,7.00
2022-12-26T09:27:54.217Z,6.10
2022-12-26T09:30:26.444Z,5.72
2022-12-26T09:32:54.287Z,5.47
2022-12-26T09:35:22.277Z,6.20
2022-12-26T09:37:50.050Z,5.85
2022-12-26T09:40:26.563Z,4.78
2022-12-26T09:43:08.557Z,8.55
2022-12-26T09:45:50.725Z,6.55
2022-12-26T09:48:26.199Z,6.05
2022-12-26T09:50:54.170Z,6.35
2022-12-26T09:53:30.218Z,6.10
2022-12-26T09:56:00.675Z,7.57
2022-12-26T09:58:33.404Z,5.88
2022-12-26T10:01:04.943Z,4.38
2022-12-26T10:03:41.637Z,4.85
2022-12-26T10:06:14.670Z,5.65
2022-12-26T10:09:06.423Z,7.80
2022-12-26T10:11:49.403Z,7.25
2022-12-26T10:14:26.363Z,4.80
2022-12-26T10:16:59.685Z,3.85
2022-12-26T10:19:45.610Z,6.03
2022-12-26T10:22:31.765Z,4.47
2022-12-26T10:25:02.118Z,3.70
2022-12-26T10:27:35.024Z,3.00
2022-12-26T10:30:07.216Z,2.47
2022-12-26T10:32:39.583Z,3.33
2022-12-26T10:35:21.194Z,3.50
2022-12-26T10:37:50.435Z,4.22
2022-12-26T10:40:21.838Z,3.05
2022-12-26T10:42:54.295Z,4.40
2022-12-26T10:45:32.011Z,2.08
2022-12-26T10:47:59.976Z,2.72
2022-12-26T10:50:30.029Z,3.17
2022-12-26T10:52:59.322Z,3.65
2022-12-26T10:55:31.399Z,3.03
2022-12-26T10:58:04.721Z,2.65
2022-12-26T11:00:35.680Z,2.35
2022-12-26T11:03:06.766Z,3.55
2022-12-26T11:06:08.151Z,3.13
2022-12-26T11:08:27.870Z,2.20
2022-12-26T11:11:04.307Z,3.80
2022-12-26T11:13:37.605Z,14.77
2022-12-26T11:16:08.788Z,3.88
2022-12-26T11:18:40.142Z,4.90
2022-12-26T11:21:14.788Z,3.58
2022-12-26T11:23:42.534Z,3.33
2022-12-26T11:26:23.106Z,2.30
2022-12-26T11:29:06.894Z,3.80
2022-12-26T11:31:36.657Z,7.13
2022-12-26T11:34:09.653Z,4.88
2022-12-26T11:36:41.360Z,3.30
2022-12-26T11:39:22.747Z,2.40
2022-12-26T11:41:51.563Z,4.05
2022-12-26T11:44:26.302Z,3.42
2022-12-26T11:47:00.073Z,8.02
2022-12-26T11:49:33.128Z,2.45
2022-12-26T11:52:02.789Z,5.78
2022-12-26T11:54:34.324Z,4.70
2022-12-26T11:57:10.209Z,5.68
2022-12-26T11:59:38.049Z,1.77
2022-12-26T12:02:41.865Z,3.25
2022-12-26T12:05:15.799Z,3.33
2022-12-26T12:08:05.303Z,4.22
2022-12-26T12:10:54.613Z,5.45
2022-12-26T12:13:53.007Z,1.63
2022-12-26T12:16:36.976Z,3.45
2022-12-26T12:19:29.371Z,7.32
2022-12-26T12:22:15.798Z,3.38
2022-12-26T12:24:56.892Z,3.65
2022-12-26T12:27:31.311Z,2.00
2022-12-26T12:30:16.635Z,2.15
2022-12-26T12:32:57.531Z,4.05
2022-12-26T12:35:43.231Z,3.80
2022-12-26T12:38:25.906Z,3.80
2022-12-26T12:41:03.657Z,2.30
2022-12-26T12:43:42.970Z,3.35
2022-12-26T12:46:21.895Z,2.95
2022-12-26T12:49:05.596Z,8.48
2022-12-26T12:51:44.192Z,4.07
2022-12-26T12:54:34.014Z,1.75
2022-12-26T12:57:12.028Z,3.58
2022-12-26T12:59:47.124Z,3.55
2022-12-26T13:02:21.411Z,1.98
2022-12-26T13:04:56.121Z,2.03
2022-12-26T13:07:32.791Z,2.73
2022-12-26T13:10:08.069Z,1.35
2022-12-26T13:12:40.959Z,3.03
2022-12-26T13:15:28.538Z,1.80
2022-12-26T13:18:01.388Z,3.70
2022-12-26T13:20:35.410Z,1.55
2022-12-26T13:23:25.421Z,1.52
2022-12-26T13:26:06.074Z,2.92
2022-12-26T13:28:41.042Z,1.15
2022-12-26T13:31:08.913Z,1.05
2022-12-26T13:33:36.880Z,2.33
2022-12-26T13:36:06.238Z,2.22
2022-12-26T13:39:25.459Z,1.00
2022-12-26T13:42:16.819Z,1.13
2022-12-26T13:44:48.785Z,1.95
2022-12-26T13:47:35.640Z,1.05
2022-12-26T13:50:37.103Z,1.40
2022-12-26T13:53:06.381Z,0.75
2022-12-26T13:55:44.794Z,1.10
2022-12-26T13:58:30.827Z,1.65
2022-12-26T14:01:05.463Z,2.08
2022-12-26T14:03:54.548Z,2.37
2022-12-26T14:06:55.303Z,3.80
2022-12-26T14:09:40.588Z,1.90
2022-12-26T14:14:57.986Z,1.92
2022-12-26T14:17:38.285Z,2.58
2022-12-26T14:20:19.619Z,1.95
2022-12-26T14:23:02.679Z,1.60
2022-12-26T14:25:38.320Z,2.30
2022-12-26T14:30:57.674Z,2.40
2022-12-26T14:33:31.713Z,1.48
2022-12-26T14:36:12.509Z,3.45
2022-12-26T14:38:49.115Z,2.72
2022-12-26T14:41:36.512Z,3.22
2022-12-26T14:44:17.036Z,2.50
2022-12-26T14:47:02.852Z,4.00
2022-12-26T14:49:42.747Z,3.00
2022-12-26T14:52:34.793Z,3.85
2022-12-26T14:55:47.097Z,2.75
2022-12-26T14:58:29.785Z,2.58
2022-12-26T15:01:19.144Z,4.05
2022-12-26T15:03:55.118Z,2.47
2022-12-26T15:07:18.617Z,2.22
2022-12-26T15:10:32.541Z,3.35
2022-12-26T15:13:24.501Z,5.55
2022-12-26T15:16:10.834Z,3.92
2022-12-26T15:19:20.894Z,4.07
2022-12-26T15:22:16.363Z,4.30
2022-12-26T15:25:21.046Z,3.53
2022-12-26T15:28:18.717Z,3.33
2022-12-26T15:31:08.830Z,3.25
2022-12-26T15:33:41.275Z,3.58
2022-12-26T15:36:21.065Z,5.88
2022-12-26T15:38:59.037Z,7.65
2022-12-26T15:41:36.629Z,7.57
2022-12-26T15:44:15.891Z,9.20
2022-12-26T15:46:50.749Z,6.70
2022-12-26T15:49:41.644Z,4.97
2022-12-26T15:52:20.851Z,7.15
2022-12-26T15:55:08.693Z,8.35
2022-12-26T15:57:48.354Z,2.65
2022-12-26T16:00:19.227Z,5.57
2022-12-26T16:02:56.509Z,5.45
2022-12-26T16:05:41.604Z,6.40
2022-12-26T16:08:37.019Z,7.50
2022-12-26T16:11:20.256Z,5.07
2022-12-26T16:13:54.504Z,8.23
2022-12-26T16:16:31.988Z,5.70
2022-12-26T16:19:16.014Z,4.65
2022-12-26T16:22:04.889Z,7.47
2022-12-26T16:24:36.568Z,4.25
2022-12-26T16:27:07.973Z,5.60
2022-12-26T16:29:48.123Z,5.03
2022-12-26T16:32:20.261Z,5.32
2022-12-26T16:34:49.598Z,7.00
2022-12-26T16:37:25.851Z,6.45
2022-12-26T16:40:18.079Z,5.53
2022-12-26T16:42:54.822Z,7.38
2022-12-26T16:45:24.024Z,4.60
2022-12-26T16:47:52.471Z,6.13
2022-12-26T16:50:22.798Z,4.55
2022-12-26T16:52:51.676Z,6.93
2022-12-26T16:55:37.700Z,8.45
2022-12-26T16:58:14.754Z,6.75
2022-12-26T17:00:49.797Z,8.23
2022-12-26T17:03:28.581Z,9.20
2022-12-26T17:05:57.312Z,9.70
2022-12-26T17:08:26.108Z,9.20
2022-12-26T17:10:55.828Z,9.30
2022-12-26T17:13:27.748Z,7.88
2022-12-26T17:15:58.946Z,9.85
2022-12-26T17:18:42.854Z,11.90
2022-12-26T17:21:24.741Z,12.93
2022-12-26T17:24:23.501Z,9.05
2022-12-26T17:27:08.107Z,10.00
2022-12-26T17:29:39.370Z,10.63
2022-12-26T17:32:09.687Z,8.95
2022-12-26T17:34:40.895Z,9.32
2022-12-26T17:37:20.341Z,7.30
2022-12-26T17:40:02.618Z,9.68
2022-12-26T17:42:44.116Z,9.50
2022-12-26T17:45:16.926Z,12.68
2022-12-26T17:47:45.051Z,7.90
2022-12-26T17:50:13.555Z,8.55
2022-12-26T17:52:42.026Z,9.40
2022-12-26T17:55:17.696Z,13.15
2022-12-26T18:00:17.747Z,9.48
2022-12-26T18:02:45.829Z,6.75
2022-12-26T18:05:14.089Z,9.60
2022-12-26T18:07:43.085Z,9.25
2022-12-26T18:10:18.484Z,8.30
2022-12-26T18:12:48.379Z,10.77
2022-12-26T18:15:16.823Z,9.98
2022-12-26T18:17:45.355Z,6.75
2022-12-26T18:20:18.575Z,9.45
2022-12-26T18:22:47.765Z,10.65
2022-12-26T18:25:17.266Z,7.38
2022-12-26T18:27:47.027Z,6.75
2022-12-26T18:30:17.936Z,11.35
2022-12-26T18:32:47.845Z,9.77
2022-12-26T18:35:16.715Z,10.23
2022-12-26T18:37:49.076Z,12.20
2022-12-26T18:40:32.281Z,7.15
2022-12-26T18:43:02.400Z,7.55
2022-12-26T18:45:31.371Z,7.03
2022-12-26T18:48:00.497Z,9.55
2022-12-26T18:50:29.633Z,7.55
2022-12-26T18:52:57.912Z,10.05
2022-12-26T18:55:27.013Z,7.53
2022-12-26T18:57:54.996Z,9.95
2022-12-26T19:00:26.249Z,5.30
2022-12-26T19:02:55.521Z,8.02
2022-12-26T19:05:26.069Z,8.00
2022-12-26T19:07:54.833Z,5.03
2022-12-26T19:10:25.122Z,7.40
2022-12-26T19:12:53.308Z,4.57
2022-12-26T19:15:21.428Z,6.82
2022-12-26T19:17:50.548Z,5.95
2022-12-26T19:20:20.659Z,7.22
2022-12-26T19:22:49.473Z,10.85
2022-12-26T19:25:18.542Z,8.43
2022-12-26T19:27:48.104Z,5.00
2022-12-26T19:30:17.399Z,11.60
2022-12-26T19:32:45.631Z,6.82
2022-12-26T19:35:16.241Z,8.35
2022-12-26T19:37:44.446Z,10.60
2022-12-26T19:40:13.243Z,9.40
2022-12-26T19:42:40.983Z,10.32
2022-12-26T19:45:11.563Z,7.88
2022-12-26T19:47:39.413Z,8.57
2022-12-26T19:50:08.801Z,7.80
2022-12-26T19:52:39.407Z,8.25
2022-12-26T19:55:09.193Z,7.55
2022-12-26T19:57:36.973Z,9.52
2022-12-26T20:00:06.193Z,8.13
2022-12-26T20:02:40.793Z,9.38
2022-12-26T20:05:09.765Z,6.82
2022-12-26T20:07:39.021Z,7.90
2022-12-26T20:10:07.308Z,10.50
2022-12-26T20:12:35.062Z,7.28
2022-12-26T20:15:02.835Z,14.40
2022-12-26T20:17:30.734Z,12.07
2022-12-26T20:19:58.532Z,10.45
2022-12-26T20:22:26.969Z,8.60
2022-12-26T20:24:56.237Z,4.35
2022-12-26T20:27:24.321Z,6.22
2022-12-26T20:29:52.094Z,12.10
2022-12-26T20:32:20.025Z,7.57
2022-12-26T20:34:47.894Z,9.00
2022-12-26T20:37:15.746Z,10.98
2022-12-26T20:39:44.219Z,6.32
2022-12-26T20:42:15.716Z,7.15
2022-12-26T20:44:43.560Z,8.20
2022-12-26T20:47:11.301Z,8.10
2022-12-26T20:49:39.117Z,5.68
2022-12-26T20:52:06.992Z,7.95
2022-12-26T20:54:34.753Z,10.85
2022-12-26T20:57:02.856Z,6.40
2022-12-26T20:59:32.309Z,9.02
2022-12-26T21:02:00.239Z,8.75
2022-12-26T21:04:29.500Z,6.55
2022-12-26T21:06:57.436Z,7.32
2022-12-26T21:09:25.210Z,7.88
2022-12-26T21:11:53.032Z,6.43
2022-12-26T21:14:22.877Z,6.97
2022-12-26T21:16:54.769Z,10.52
2022-12-26T21:19:23.980Z,8.57
2022-12-26T21:21:53.601Z,9.93
2022-12-26T21:24:24.434Z,8.20
2022-12-26T21:26:52.949Z,11.23
2022-12-26T21:29:23.124Z,9.18
2022-12-26T21:31:53.143Z,9.95
2022-12-26T21:34:23.469Z,10.20
2022-12-26T21:37:09.427Z,13.85
2022-12-26T21:39:38.653Z,13.70
2022-12-26T21:42:08.243Z,9.65
2022-12-26T21:44:36.961Z,11.32
2022-12-26T21:47:07.856Z,8.25
2022-12-26T21:49:36.146Z,8.10
2022-12-26T21:52:04.025Z,8.35
2022-12-26T21:54:49.631Z,12.73
2022-12-26T21:57:20.552Z,7.38
2022-12-26T22:00:05.359Z,7.53
2022-12-26T22:02:53.534Z,5.18
2022-12-26T22:05:24.019Z,6.15
2022-12-26T22:07:53.829Z,12.90
2022-12-26T22:10:39.443Z,8.95
2022-12-26T22:13:07.749Z,6.78
2022-12-26T22:15:53.274Z,10.48
2022-12-26T22:18:22.455Z,11.63
2022-12-26T22:20:50.216Z,11.35
2022-12-26T22:23:18.039Z,6.65
2022-12-26T22:25:53.814Z,12.60
2022-12-26T22:28:23.636Z,10.10
2022-12-26T22:30:52.143Z,12.07
2022-12-26T22:33:20.254Z,7.60
2022-12-26T22:35:49.683Z,6.82
2022-12-26T22:38:17.693Z,9.50
2022-12-26T22:40:53.947Z,11.40
2022-12-26T22:43:21.974Z,4.95
2022-12-26T22:45:49.749Z,7.18
2022-12-26T22:48:18.408Z,9.25
2022-12-26T22:50:47.231Z,8.77
2022-12-26T22:53:16.340Z,9.00
2022-12-26T22:55:48.496Z,18.85
2022-12-26T22:58:17.761Z,13.52
2022-12-26T23:00:47.140Z,14.23
2022-12-26T23:03:15.640Z,11.95
2022-12-26T23:05:43.806Z,8.38
2022-12-26T23:08:18.875Z,8.50
2022-12-26T23:10:47.766Z,9.40
2022-12-26T23:13:19.114Z,8.38
2022-12-26T23:15:56.046Z,8.90
2022-12-26T23:18:52.531Z,10.70
2022-12-26T23:21:42.334Z,8.70
2022-12-26T23:24:14.872Z,11.38
2022-12-26T23:26:44.574Z,10.05
2022-12-26T23:29:31.258Z,9.25
2022-12-26T23:31:59.185Z,5.75
2022-12-26T23:34:27.906Z,11.13
2022-12-26T23:36:55.866Z,7.97
2022-12-26T23:39:25.671Z,4.80
2022-12-26T23:41:53.501Z,7.75
2022-12-26T23:44:22.466Z,10.60
2022-12-26T23:46:50.477Z,8.52
2022-12-26T23:49:18.304Z,12.90
2022-12-26T23:51:46.041Z,8.98
2022-12-26T23:54:13.770Z,12.63
2022-12-26T23:56:42.996Z,6.50
2022-12-26T23:59:10.841Z,8.25
